Time;durP1;ratioP1;P1;durP2;ratioP2;P2;SDS_P1;SDS_P2;PMS_P1;PMS_P2;Temp;Humidity;BMP_temperature;BMP_pressure;BME280_temperature;BME280_humidity;BME280_pressure;Samples;Min_cycle;Max_cycle;Signal;HPM_P1;HPM_P2
2022/11/10 00:09:40;;;;;;;7.65;4.18;;;;;;;;;;21090164;28;20051;-60
2022/11/10 00:19:42;;;;;;;15.23;8.23;;;;;;;;;;21090135;28;20048;-59
2022/11/10 00:29:46;;;;;;;6.57;3.20;;;;;;;;;;21088498;28;20135;-61
2022/11/10 00:39:48;;;;;;;8.15;2.42;;;;;;;;;;21087293;28;20135;-63
2022/11/10 00:49:51;;;;;;;3.50;2.42;;;;;;;;;;21086332;28;20496;-62
2022/11/10 00:59:53;;;;;;;3.85;2.35;;;;;;;;;;21085332;28;20464;-62
2022/11/10 01:09:55;;;;;;;4.82;2.40;;;;;;;;;;21085348;28;20135;-62
2022/11/10 01:19:57;;;;;;;5.18;2.75;;;;;;;;;;21085043;28;20443;-64
2022/11/10 01:29:59;;;;;;;5.43;3.00;;;;;;;;;;21084375;28;20056;-61
2022/11/10 01:40:01;;;;;;;6.55;2.90;;;;;;;;;;21082879;28;20048;-61
2022/11/10 01:50:03;;;;;;;6.43;3.50;;;;;;;;;;21082052;28;20055;-60
2022/11/10 02:00:05;;;;;;;5.93;2.83;;;;;;;;;;21063209;28;20051;-62
2022/11/10 02:10:15;;;;;;;4.85;2.65;;;;;;;;;;21081254;28;20120;-62
2022/11/10 02:20:18;;;;;;;5.00;2.25;;;;;;;;;;21079638;28;20054;-62
2022/11/10 02:30:22;;;;;;;4.85;2.83;;;;;;;;;;21080191;28;20071;-61
2022/11/10 02:40:26;;;;;;;4.05;2.67;;;;;;;;;;21079058;28;20127;-61
2022/11/10 02:50:30;;;;;;;4.05;2.65;;;;;;;;;;21078006;28;20064;-60
2022/11/10 03:00:34;;;;;;;5.63;2.33;;;;;;;;;;21078402;28;20079;-62
2022/11/10 03:10:37;;;;;;;4.35;2.50;;;;;;;;;;21078752;28;20381;-63
2022/11/10 03:20:40;;;;;;;3.42;2.25;;;;;;;;;;21077053;28;20048;-66
2022/11/10 03:30:43;;;;;;;3.33;2.00;;;;;;;;;;21090102;28;20052;-62
2022/11/10 03:40:49;;;;;;;4.05;2.38;;;;;;;;;;21091887;28;20072;-63
2022/11/10 03:50:52;;;;;;;4.28;2.20;;;;;;;;;;21090873;28;20113;-62
2022/11/10 04:00:58;;;;;;;3.92;2.50;;;;;;;;;;21090943;28;20496;-62
2022/11/10 04:11:04;;;;;;;6.53;2.45;;;;;;;;;;21090635;28;20051;-62
2022/11/10 04:21:11;;;;;;;5.50;2.67;;;;;;;;;;21089223;28;20048;-62
2022/11/10 04:31:16;;;;;;;5.30;3.22;;;;;;;;;;21088724;28;20059;-61
2022/11/10 04:41:22;;;;;;;5.32;2.80;;;;;;;;;;21086871;28;20047;-63
2022/11/10 04:51:44;;;;;;;4.78;2.38;;;;;;;;;;21086383;28;20488;-64
2022/11/10 05:02:05;;;;;;;4.10;2.80;;;;;;;;;;21086878;28;20051;-63
2022/11/10 05:12:11;;;;;;;6.43;2.67;;;;;;;;;;21084643;28;20094;-63
2022/11/10 05:22:16;;;;;;;7.60;3.00;;;;;;;;;;21084827;28;20074;-60
2022/11/10 05:32:20;;;;;;;8.00;4.10;;;;;;;;;;21084113;28;20083;-63
2022/11/10 05:42:23;;;;;;;6.78;2.75;;;;;;;;;;21082742;28;20051;-62
2022/11/10 05:52:25;;;;;;;3.88;2.53;;;;;;;;;;21080809;28;20098;-62
2022/11/10 06:02:28;;;;;;;4.65;2.30;;;;;;;;;;21082011;28;20151;-61
2022/11/10 06:12:29;;;;;;;5.05;3.10;;;;;;;;;;21080195;28;20086;-63
2022/11/10 06:22:31;;;;;;;5.63;2.63;;;;;;;;;;21080017;28;20047;-62
2022/11/10 06:32:34;;;;;;;6.20;2.42;;;;;;;;;;21079951;28;20496;-62
2022/11/10 06:42:36;;;;;;;5.90;2.30;;;;;;;;;;21078642;28;20071;-63
2022/11/10 06:52:38;;;;;;;4.45;1.92;;;;;;;;;;21077233;28;20059;-62
2022/11/10 07:02:40;;;;;;;5.43;3.70;;;;;;;;;;21087931;28;20044;-61
2022/11/10 07:12:42;;;;;;;8.10;4.07;;;;;;;;;;21094527;28;20133;-62
2022/11/10 07:22:45;;;;;;;6.35;3.20;;;;;;;;;;21093193;28;20076;-62
2022/11/10 07:32:47;;;;;;;9.60;3.28;;;;;;;;;;21092558;28;20148;-63
2022/11/10 07:42:48;;;;;;;7.93;2.40;;;;;;;;;;21092730;28;20063;-62
2022/11/10 07:52:50;;;;;;;6.47;2.47;;;;;;;;;;21090182;28;20094;-62
2022/11/10 08:02:52;;;;;;;5.93;2.80;;;;;;;;;;21089647;28;20048;-63
2022/11/10 08:12:59;;;;;;;5.90;2.95;;;;;;;;;;21070029;28;20135;-62
2022/11/10 08:23:05;;;;;;;7.28;2.53;;;;;;;;;;21089213;28;20048;-61
2022/11/10 08:33:08;;;;;;;5.60;2.60;;;;;;;;;;21088524;28;20059;-62
2022/11/10 08:43:11;;;;;;;6.35;3.13;;;;;;;;;;21069847;28;20114;-64
2022/11/10 08:53:19;;;;;;;11.55;3.50;;;;;;;;;;21086527;28;20055;-63
2022/11/10 09:03:23;;;;;;;13.98;6.85;;;;;;;;;;21085658;28;20476;-63
2022/11/10 09:13:24;;;;;;;8.30;3.92;;;;;;;;;;21084564;28;20073;-63
2022/11/10 09:23:27;;;;;;;10.05;3.60;;;;;;;;;;21083067;28;20093;-62
2022/11/10 09:33:29;;;;;;;7.32;2.60;;;;;;;;;;21082950;28;20048;-61
2022/11/10 09:43:37;;;;;;;4.57;2.38;;;;;;;;;;21101412;28;20047;-63
2022/11/10 09:53:55;;;;;;;5.85;2.70;;;;;;;;;;21068399;27;20391;-63
2022/11/10 10:04:12;;;;;;;12.40;2.88;;;;;;;;;;21068371;28;20044;-62
2022/11/10 10:14:25;;;;;;;9.30;3.45;;;;;;;;;;21067329;28;20491;-63
2022/11/10 10:24:29;;;;;;;13.43;6.10;;;;;;;;;;21064907;28;20048;-62
2022/11/10 10:34:33;;;;;;;5.28;2.70;;;;;;;;;;21066236;28;20135;-66
2022/11/10 10:44:35;;;;;;;9.25;2.80;;;;;;;;;;21065053;28;20056;-65
2022/11/10 10:54:37;;;;;;;5.70;3.00;;;;;;;;;;21064504;28;20044;-64
2022/11/10 11:04:39;;;;;;;9.25;2.80;;;;;;;;;;21010062;28;20481;-67
2022/11/10 11:14:41;;;;;;;3.92;2.63;;;;;;;;;;21006265;28;20122;-66
2022/11/10 11:24:46;;;;;;;6.20;3.42;;;;;;;;;;21004570;28;20055;-63
2022/11/10 11:35:06;;;;;;;6.40;2.90;;;;;;;;;;21005084;28;20163;-65
2022/11/10 11:45:08;;;;;;;6.55;3.22;;;;;;;;;;21012767;28;20056;-72
2022/11/10 11:55:24;;;;;;;7.28;3.80;;;;;;;;;;21003996;28;20086;-58
2022/11/10 12:05:36;;;;;;;6.35;3.30;;;;;;;;;;21002515;28;20101;-61
2022/11/10 12:15:49;;;;;;;9.75;4.70;;;;;;;;;;21001420;28;20051;-61
2022/11/10 12:25:56;;;;;;;8.88;4.03;;;;;;;;;;21002139;28;20059;-61
2022/11/10 12:35:59;;;;;;;5.95;2.90;;;;;;;;;;21000778;28;20059;-64
2022/11/10 12:46:04;;;;;;;6.50;2.90;;;;;;;;;;20999640;28;20408;-60
2022/11/10 12:56:05;;;;;;;8.38;2.58;;;;;;;;;;20998754;28;20047;-62
2022/11/10 13:06:22;;;;;;;4.88;2.10;;;;;;;;;;20998887;28;20064;-62
2022/11/10 13:16:48;;;;;;;7.50;1.80;;;;;;;;;;20998809;28;20082;-60
2022/11/10 13:26:51;;;;;;;4.55;1.98;;;;;;;;;;20905503;28;20056;-61
2022/11/10 13:36:54;;;;;;;3.80;1.10;;;;;;;;;;20904929;28;20041;-62
2022/11/10 13:47:08;;;;;;;2.03;1.10;;;;;;;;;;20904125;28;20057;-61
2022/11/10 13:57:19;;;;;;;4.43;1.75;;;;;;;;;;20926100;28;20071;-61
2022/11/10 14:07:21;;;;;;;3.80;1.60;;;;;;;;;;20995465;28;20048;-61
2022/11/10 14:17:25;;;;;;;1.92;1.30;;;;;;;;;;20995462;28;20055;-61
2022/11/10 14:27:28;;;;;;;3.60;1.45;;;;;;;;;;20994839;28;20110;-61
2022/11/10 14:37:30;;;;;;;4.93;1.83;;;;;;;;;;21005721;28;20123;-61
2022/11/10 14:47:32;;;;;;;4.18;1.95;;;;;;;;;;21009843;28;20110;-62
2022/11/10 14:57:34;;;;;;;6.15;1.85;;;;;;;;;;21009342;28;20110;-64
2022/11/10 15:07:36;;;;;;;5.20;1.67;;;;;;;;;;21007772;28;20045;-61
2022/11/10 15:17:45;;;;;;;3.55;1.60;;;;;;;;;;21007502;28;20481;-62
2022/11/10 15:27:58;;;;;;;4.20;1.63;;;;;;;;;;21007713;28;20481;-62
2022/11/10 15:38:02;;;;;;;5.78;1.55;;;;;;;;;;21005790;28;20049;-62
2022/11/10 15:48:05;;;;;;;2.33;1.35;;;;;;;;;;21004576;28;20079;-62
2022/11/10 15:58:13;;;;;;;3.58;1.42;;;;;;;;;;21002603;28;20079;-62
2022/11/10 16:08:16;;;;;;;3.97;1.40;;;;;;;;;;21003412;28;20052;-62
2022/11/10 16:18:21;;;;;;;5.80;1.70;;;;;;;;;;21005358;28;20076;-62
2022/11/10 16:28:24;;;;;;;3.53;1.50;;;;;;;;;;21004748;28;20060;-62
2022/11/10 16:38:27;;;;;;;3.40;1.42;;;;;;;;;;21001497;28;20044;-61
2022/11/10 16:48:34;;;;;;;9.25;2.13;;;;;;;;;;21003686;28;20162;-63
2022/11/10 16:58:36;;;;;;;6.70;1.60;;;;;;;;;;20999142;28;20547;-66
2022/11/10 17:08:39;;;;;;;5.72;1.40;;;;;;;;;;21004159;28;20048;-61
2022/11/10 17:18:40;;;;;;;2.03;1.02;;;;;;;;;;21005896;28;20050;-64
2022/11/10 17:28:43;;;;;;;7.90;3.05;;;;;;;;;;21001267;28;20052;-63
2022/11/10 17:38:46;;;;;;;6.05;2.40;;;;;;;;;;20996630;28;20052;-61
2022/11/10 17:48:48;;;;;;;10.90;4.70;;;;;;;;;;20996314;28;20052;-63
2022/11/10 17:58:52;;;;;;;9.52;3.28;;;;;;;;;;20986279;28;20041;-62
2022/11/10 18:08:54;;;;;;;19.92;9.15;;;;;;;;;;20952368;28;20091;-64
2022/11/10 18:18:57;;;;;;;16.98;7.07;;;;;;;;;;20969709;28;20088;-69
2022/11/10 18:28:59;;;;;;;24.65;12.00;;;;;;;;;;20961672;28;20045;-67
2022/11/10 18:39:01;;;;;;;12.70;6.88;;;;;;;;;;20954314;28;20045;-64
2022/11/10 18:49:03;;;;;;;17.50;7.05;;;;;;;;;;20929588;28;20061;-65
2022/11/10 18:59:05;;;;;;;15.77;5.43;;;;;;;;;;20970040;28;20059;-69
2022/11/10 19:09:07;;;;;;;12.90;5.05;;;;;;;;;;20987184;28;20067;-72
2022/11/10 19:19:10;;;;;;;15.50;5.63;;;;;;;;;;20970353;28;20067;-66
2022/11/10 19:29:14;;;;;;;18.65;10.65;;;;;;;;;;20951227;28;20052;-65
2022/11/10 19:39:15;;;;;;;14.85;4.20;;;;;;;;;;20950444;28;20048;-65
2022/11/10 19:49:18;;;;;;;8.10;3.15;;;;;;;;;;20996669;28;20048;-63
2022/11/10 19:59:20;;;;;;;3.67;1.85;;;;;;;;;;21003174;28;20052;-65
2022/11/10 20:09:22;;;;;;;5.72;1.70;;;;;;;;;;21003198;28;20151;-65
2022/11/10 20:19:24;;;;;;;3.47;1.63;;;;;;;;;;21000551;28;20052;-63
2022/11/10 20:29:26;;;;;;;4.63;2.47;;;;;;;;;;21001349;28;20121;-61
2022/11/10 20:39:28;;;;;;;5.22;1.83;;;;;;;;;;20998929;28;20052;-62
2022/11/10 20:49:30;;;;;;;3.63;2.10;;;;;;;;;;21000022;28;20060;-63
2022/11/10 20:59:33;;;;;;;7.00;3.35;;;;;;;;;;20999194;28;20072;-63
2022/11/10 21:09:35;;;;;;;3.97;2.22;;;;;;;;;;20997628;28;20393;-64
2022/11/10 21:19:37;;;;;;;6.05;2.45;;;;;;;;;;20996398;28;20045;-63
2022/11/10 21:29:41;;;;;;;8.15;2.53;;;;;;;;;;20995576;28;20066;-63
2022/11/10 21:39:43;;;;;;;5.22;2.40;;;;;;;;;;20994668;28;20045;-66
2022/11/10 21:49:44;;;;;;;9.40;3.97;;;;;;;;;;20993889;28;20447;-63
2022/11/10 21:59:46;;;;;;;6.03;2.80;;;;;;;;;;20995282;28;20044;-62
2022/11/10 22:20:14;;;;;;;5.78;3.72;;;;;;;;;;20994346;28;20056;-62
2022/11/10 22:30:16;;;;;;;8.88;3.80;;;;;;;;;;20993583;28;20528;-63
2022/11/10 22:50:38;;;;;;;6.82;3.00;;;;;;;;;;20992021;28;20444;-63
2022/11/10 23:00:40;;;;;;;3.38;2.05;;;;;;;;;;21006318;28;20058;-63
2022/11/10 23:10:42;;;;;;;4.85;2.45;;;;;;;;;;21005825;28;20057;-64
2022/11/10 23:20:45;;;;;;;7.68;3.08;;;;;;;;;;21007336;28;20086;-63
2022/11/10 23:30:46;;;;;;;5.22;1.80;;;;;;;;;;21005775;28;20053;-63
2022/11/10 23:40:48;;;;;;;5.13;2.03;;;;;;;;;;21005871;28;20481;-62
2022/11/10 23:50:50;;;;;;;3.58;2.05;;;;;;;;;;21003679;28;20064;-63
